Time;durP1;ratioP1;P1;durP2;ratioP2;P2;SDS_P1;SDS_P2;PMS_P1;PMS_P2;Temp;Humidity;BMP_temperature;BMP_pressure;BME280_temperature;BME280_humidity;BME280_pressure;Samples;Min_cycle;Max_cycle;Signal;HPM_P1;HPM_P2
2023/07/19 00:02:13;;;;;;;4.32;2.50;;;16.20;99.90;;;;;;5036765;28;20228;-76
2023/07/19 00:04:39;;;;;;;4.80;2.30;;;16.20;99.90;;;;;;5038361;28;20594;-76
2023/07/19 00:07:06;;;;;;;3.42;2.40;;;16.20;99.90;;;;;;5033689;28;20255;-76
2023/07/19 00:09:34;;;;;;;4.10;2.38;;;16.20;99.90;;;;;;5024263;28;20230;-77
2023/07/19 00:12:01;;;;;;;2.92;2.10;;;16.20;99.90;;;;;;5033070;28;22355;-77
2023/07/19 00:14:27;;;;;;;4.43;2.47;;;16.20;99.90;;;;;;5036712;28;20327;-76
2023/07/19 00:16:54;;;;;;;3.00;2.17;;;16.20;99.90;;;;;;5041080;28;20224;-77
2023/07/19 00:19:21;;;;;;;2.87;2.23;;;16.10;99.90;;;;;;5024841;28;20257;-78
2023/07/19 00:21:48;;;;;;;3.88;1.73;;;16.10;99.90;;;;;;5033314;28;20235;-78
2023/07/19 00:24:15;;;;;;;2.20;1.80;;;16.10;99.90;;;;;;5042477;28;20303;-77
2023/07/19 00:26:43;;;;;;;3.65;1.92;;;16.10;99.90;;;;;;5046453;28;20242;-76
2023/07/19 00:29:10;;;;;;;2.20;1.93;;;16.10;99.90;;;;;;5035339;28;20277;-77
2023/07/19 00:31:37;;;;;;;2.53;2.07;;;16.10;99.90;;;;;;5025166;28;20239;-77
2023/07/19 00:34:04;;;;;;;3.80;2.10;;;16.00;99.90;;;;;;5021984;28;20228;-76
2023/07/19 00:36:31;;;;;;;3.80;2.10;;;16.00;99.90;;;;;;5037030;28;20953;-77
2023/07/19 00:38:58;;;;;;;4.77;2.20;;;15.90;99.90;;;;;;5019059;28;20251;-77
2023/07/19 00:41:24;;;;;;;3.07;2.20;;;15.90;99.90;;;;;;5038657;28;20232;-77
2023/07/19 00:43:53;;;;;;;8.60;2.30;;;15.80;99.90;;;;;;5035400;28;20220;-77
2023/07/19 00:46:21;;;;;;;3.35;2.35;;;15.80;99.90;;;;;;5021485;28;20752;-77
2023/07/19 00:48:49;;;;;;;3.40;2.28;;;15.80;99.90;;;;;;5037434;28;20225;-76
2023/07/19 00:51:17;;;;;;;4.27;2.50;;;15.80;99.90;;;;;;5023637;28;20255;-77
2023/07/19 00:53:48;;;;;;;4.80;2.63;;;15.70;99.90;;;;;;5019145;28;20228;-77
2023/07/19 00:56:15;;;;;;;4.77;2.50;;;15.70;99.90;;;;;;5035623;28;20642;-77
2023/07/19 00:58:43;;;;;;;4.30;2.60;;;15.70;99.90;;;;;;5039763;28;20210;-77
2023/07/19 01:01:11;;;;;;;5.50;2.50;;;15.70;99.90;;;;;;5030221;28;20695;-76
2023/07/19 01:03:38;;;;;;;2.77;2.03;;;15.70;99.90;;;;;;5022025;28;20229;-76
2023/07/19 01:06:06;;;;;;;3.40;2.50;;;15.70;99.90;;;;;;5018727;28;20273;-78
2023/07/19 01:08:33;;;;;;;3.63;2.23;;;15.70;99.90;;;;;;5037672;28;22541;-77
2023/07/19 01:11:01;;;;;;;4.70;2.53;;;15.70;99.90;;;;;;5036246;28;20228;-76
2023/07/19 01:13:28;;;;;;;2.30;2.00;;;15.70;99.90;;;;;;5035412;28;20255;-77
2023/07/19 01:15:55;;;;;;;3.23;2.20;;;15.70;99.90;;;;;;5016240;28;20220;-76
2023/07/19 01:18:23;;;;;;;3.92;2.38;;;15.70;99.90;;;;;;5017793;28;20311;-76
2023/07/19 01:20:51;;;;;;;3.55;2.28;;;15.70;99.90;;;;;;5034598;28;20279;-76
2023/07/19 01:23:19;;;;;;;3.95;2.28;;;15.70;99.90;;;;;;5033883;28;20224;-75
2023/07/19 01:25:48;;;;;;;2.42;1.95;;;15.80;99.90;;;;;;5034898;28;20209;-76
2023/07/19 01:28:16;;;;;;;2.78;2.25;;;15.70;99.90;;;;;;5035183;28;20881;-76
2023/07/19 01:30:42;;;;;;;4.90;2.50;;;15.70;99.90;;;;;;5034619;28;20224;-77
2023/07/19 01:33:09;;;;;;;4.07;2.37;;;15.70;99.90;;;;;;5016993;28;20315;-77
2023/07/19 01:35:36;;;;;;;3.47;2.20;;;15.80;99.90;;;;;;5035846;28;20322;-76
2023/07/19 01:38:03;;;;;;;5.40;2.40;;;15.70;99.90;;;;;;5027565;28;20242;-76
2023/07/19 01:40:31;;;;;;;4.07;2.40;;;15.70;99.90;;;;;;5033415;28;20730;-77
2023/07/19 01:42:57;;;;;;;4.10;2.07;;;15.60;99.90;;;;;;5017712;28;20261;-76
2023/07/19 01:45:26;;;;;;;4.30;2.23;;;15.70;99.90;;;;;;5033912;28;20278;-77
2023/07/19 01:47:54;;;;;;;2.57;1.90;;;15.60;99.90;;;;;;5021844;28;20227;-77
2023/07/19 01:50:21;;;;;;;3.47;2.30;;;15.60;99.90;;;;;;5034913;28;20224;-76
2023/07/19 01:52:49;;;;;;;3.47;2.03;;;15.60;99.90;;;;;;5038164;28;20777;-77
2023/07/19 01:55:15;;;;;;;3.40;1.90;;;15.60;99.90;;;;;;5040825;28;20232;-77
2023/07/19 01:57:44;;;;;;;2.27;1.90;;;15.60;99.90;;;;;;5039387;28;20216;-76
2023/07/19 02:00:12;;;;;;;3.77;2.13;;;15.60;99.90;;;;;;5017599;28;21018;-76
2023/07/19 02:02:46;;;;;;;2.57;2.13;;;15.60;99.90;;;;;;5045775;28;20223;-77
2023/07/19 02:05:13;;;;;;;4.00;2.50;;;15.60;99.90;;;;;;5021309;28;21188;-77
2023/07/19 02:07:40;;;;;;;2.13;1.93;;;15.60;99.90;;;;;;5025236;28;20236;-77
2023/07/19 02:10:09;;;;;;;4.43;2.33;;;15.60;99.90;;;;;;5041586;28;20223;-76
2023/07/19 02:12:36;;;;;;;5.37;2.40;;;15.50;99.90;;;;;;5034920;28;20231;-77
2023/07/19 02:15:06;;;;;;;3.27;2.20;;;15.50;99.90;;;;;;5019333;28;20303;-76
2023/07/19 02:17:36;;;;;;;2.50;2.30;;;15.50;99.90;;;;;;5040322;28;20224;-76
2023/07/19 02:20:03;;;;;;;3.77;2.27;;;15.50;99.90;;;;;;5039497;28;20223;-76
2023/07/19 02:22:30;;;;;;;5.47;2.10;;;15.50;99.90;;;;;;5038840;28;20235;-78
2023/07/19 02:24:57;;;;;;;3.60;2.20;;;15.50;99.90;;;;;;5025246;28;20227;-77
2023/07/19 02:27:24;;;;;;;4.10;2.60;;;15.40;99.90;;;;;;5040540;28;20645;-76
2023/07/19 02:29:51;;;;;;;4.17;2.53;;;15.50;99.90;;;;;;5023907;28;20436;-76
2023/07/19 02:32:21;;;;;;;3.57;2.33;;;15.40;99.90;;;;;;5023886;28;20299;-78
2023/07/19 02:34:48;;;;;;;2.90;2.30;;;15.40;99.90;;;;;;5036406;28;20583;-77
2023/07/19 02:37:15;;;;;;;3.73;2.20;;;15.40;99.90;;;;;;5037172;28;20277;-76
2023/07/19 02:39:42;;;;;;;4.93;2.30;;;15.40;99.90;;;;;;5037772;28;20642;-76
2023/07/19 02:42:11;;;;;;;2.97;2.00;;;15.30;99.90;;;;;;5036163;28;20881;-76
2023/07/19 02:44:37;;;;;;;3.70;2.20;;;15.30;99.90;;;;;;5022144;28;20227;-76
2023/07/19 02:47:05;;;;;;;3.40;2.00;;;15.30;99.90;;;;;;5035313;28;20231;-76
2023/07/19 02:49:33;;;;;;;5.97;2.10;;;15.30;99.90;;;;;;5032035;28;20247;-76
2023/07/19 02:52:00;;;;;;;3.07;2.03;;;15.30;99.90;;;;;;5020428;28;20916;-76
2023/07/19 02:54:27;;;;;;;3.83;2.13;;;15.30;99.90;;;;;;5035395;28;20224;-75
2023/07/19 02:56:54;;;;;;;5.03;2.23;;;15.30;99.90;;;;;;5016285;28;20838;-76
2023/07/19 02:59:21;;;;;;;2.30;1.90;;;15.30;99.90;;;;;;5035310;28;20230;-77
2023/07/19 03:01:48;;;;;;;3.30;2.00;;;15.20;99.90;;;;;;5043377;28;20755;-77
2023/07/19 03:04:15;;;;;;;3.83;2.47;;;15.20;99.90;;;;;;5018255;28;20216;-77
2023/07/19 03:06:44;;;;;;;3.77;1.87;;;15.20;99.90;;;;;;5024922;28;20242;-77
2023/07/19 03:09:12;;;;;;;4.60;2.03;;;15.10;99.90;;;;;;5035145;28;20208;-77
2023/07/19 03:11:39;;;;;;;4.23;2.03;;;15.10;99.90;;;;;;5036469;28;20955;-77
2023/07/19 03:14:06;;;;;;;5.63;2.00;;;15.00;99.90;;;;;;5034443;28;21070;-77
2023/07/19 03:16:33;;;;;;;5.23;2.43;;;15.00;99.90;;;;;;5036579;28;20259;-77
2023/07/19 03:19:00;;;;;;;4.07;2.17;;;15.00;99.90;;;;;;5020305;28;20832;-77
2023/07/19 03:21:27;;;;;;;3.63;2.43;;;14.90;99.90;;;;;;5040211;28;20231;-80
2023/07/19 03:23:58;;;;;;;2.83;2.20;;;14.90;99.90;;;;;;5024554;28;20237;-80
2023/07/19 03:26:25;;;;;;;5.63;2.50;;;14.90;99.90;;;;;;5024469;28;20293;-79
2023/07/19 03:28:52;;;;;;;3.97;2.10;;;14.80;99.90;;;;;;5023443;28;20923;-79
2023/07/19 03:31:19;;;;;;;4.43;2.50;;;14.80;99.90;;;;;;5019740;28;20227;-79
2023/07/19 03:33:46;;;;;;;3.53;2.40;;;14.80;99.90;;;;;;5022903;28;20315;-80
2023/07/19 03:36:13;;;;;;;3.20;2.10;;;14.70;99.90;;;;;;5038737;28;20218;-79
2023/07/19 03:38:40;;;;;;;4.30;2.57;;;14.70;99.90;;;;;;5039681;28;20308;-79
2023/07/19 03:41:09;;;;;;;3.63;2.63;;;14.70;99.90;;;;;;5038791;28;20227;-79
2023/07/19 03:43:37;;;;;;;3.60;2.30;;;14.70;99.90;;;;;;5037922;28;21183;-79
2023/07/19 03:46:05;;;;;;;2.67;2.03;;;14.70;99.90;;;;;;5036238;28;20261;-79
2023/07/19 03:48:32;;;;;;;5.27;2.70;;;14.60;99.90;;;;;;5037181;28;20660;-79
2023/07/19 03:51:00;;;;;;;2.53;2.10;;;14.60;99.90;;;;;;5023591;28;20219;-79
2023/07/19 03:53:28;;;;;;;2.90;2.30;;;14.60;99.90;;;;;;5076572;23;20219;-95
2023/07/19 03:55:55;;;;;;;4.90;2.00;;;14.60;99.90;;;;;;5046772;28;20218;-94
2023/07/19 03:58:24;;;;;;;4.10;2.17;;;14.60;99.90;;;;;;5044995;28;20800;-94
2023/07/19 04:00:53;;;;;;;3.77;2.20;;;14.60;99.90;;;;;;5045455;28;20218;-94
2023/07/19 04:03:20;;;;;;;3.83;2.00;;;14.50;99.90;;;;;;5041316;28;20227;-93
2023/07/19 04:05:47;;;;;;;3.07;1.90;;;14.50;99.90;;;;;;5056876;28;20254;-93
2023/07/19 04:08:14;;;;;;;6.03;1.90;;;14.50;99.90;;;;;;5060243;28;20215;-93
2023/07/19 04:10:41;;;;;;;3.13;1.80;;;14.60;99.90;;;;;;5043191;28;20226;-93
2023/07/19 04:13:08;;;;;;;2.83;1.73;;;14.50;99.90;;;;;;5065516;28;21603;-93
2023/07/19 04:15:36;;;;;;;2.90;1.80;;;14.50;99.90;;;;;;5045367;28;20279;-94
2023/07/19 04:18:04;;;;;;;3.80;1.97;;;14.50;99.90;;;;;;5046458;28;20308;-95
2023/07/19 04:20:31;;;;;;;4.63;1.80;;;14.50;99.90;;;;;;5051744;28;20248;-95
2023/07/19 04:22:58;;;;;;;2.43;1.60;;;14.50;99.90;;;;;;5054602;28;20245;-94
2023/07/19 04:25:25;;;;;;;3.97;1.90;;;14.40;99.90;;;;;;5061806;28;20246;-94
2023/07/19 04:27:53;;;;;;;3.87;1.80;;;14.40;99.90;;;;;;5057528;28;20219;-94
2023/07/19 04:30:21;;;;;;;3.53;1.83;;;14.40;99.90;;;;;;5071817;28;20748;-95
2023/07/19 04:32:51;;;;;;;4.50;1.87;;;14.40;99.90;;;;;;5064524;28;20274;-94
2023/07/19 04:35:18;;;;;;;2.47;1.60;;;14.40;99.90;;;;;;5081983;28;20219;-95
2023/07/19 04:37:45;;;;;;;2.93;1.80;;;14.30;99.90;;;;;;5060424;28;20264;-94
2023/07/19 04:40:12;;;;;;;3.47;1.83;;;14.30;99.90;;;;;;5058812;23;20237;-78
2023/07/19 04:42:41;;;;;;;2.93;1.70;;;14.30;99.90;;;;;;5020311;28;20303;-79
2023/07/19 04:45:09;;;;;;;7.37;3.00;;;14.30;99.90;;;;;;5036463;28;20228;-80
2023/07/19 04:47:37;;;;;;;2.67;1.70;;;14.30;99.90;;;;;;5007376;28;20225;-79
2023/07/19 04:50:06;;;;;;;2.00;1.50;;;14.30;99.90;;;;;;5024202;28;20228;-80
2023/07/19 04:52:34;;;;;;;4.23;1.80;;;14.30;99.90;;;;;;5023953;28;20342;-79
2023/07/19 04:55:02;;;;;;;4.83;1.60;;;14.30;99.90;;;;;;5012071;28;20231;-79
2023/07/19 04:57:29;;;;;;;3.20;1.90;;;14.30;99.90;;;;;;5028174;28;20576;-80
2023/07/19 04:59:56;;;;;;;1.90;1.70;;;14.30;99.90;;;;;;5028746;28;20231;-80
2023/07/19 05:02:23;;;;;;;3.97;1.80;;;14.30;99.90;;;;;;5026124;28;20224;-79
2023/07/19 05:04:50;;;;;;;2.37;2.00;;;14.30;99.90;;;;;;5025106;28;20310;-79
2023/07/19 05:07:19;;;;;;;4.13;2.03;;;14.30;99.90;;;;;;5008924;28;20252;-79
2023/07/19 05:09:45;;;;;;;1.90;1.70;;;14.30;99.90;;;;;;5020743;28;20259;-80
2023/07/19 05:12:12;;;;;;;3.40;1.73;;;14.20;99.90;;;;;;5004176;28;20226;-79
2023/07/19 05:14:39;;;;;;;3.37;1.97;;;14.20;99.90;;;;;;5014974;28;20330;-80
2023/07/19 05:17:06;;;;;;;2.50;1.73;;;14.20;99.90;;;;;;5009693;28;20226;-79
2023/07/19 05:19:33;;;;;;;3.23;2.00;;;14.20;99.90;;;;;;5025502;28;20222;-81
2023/07/19 05:22:00;;;;;;;3.30;2.00;;;14.10;99.90;;;;;;5014522;28;20228;-80
2023/07/19 05:24:28;;;;;;;4.23;1.87;;;14.10;99.90;;;;;;5013776;28;20221;-79
2023/07/19 05:26:55;;;;;;;3.70;1.80;;;14.10;99.90;;;;;;5010775;28;20319;-78
2023/07/19 05:29:22;;;;;;;3.23;1.90;;;14.20;99.90;;;;;;5023066;28;20259;-78
2023/07/19 05:31:49;;;;;;;4.23;2.10;;;14.20;99.90;;;;;;5025539;28;20228;-77
2023/07/19 05:34:15;;;;;;;3.53;1.70;;;14.20;99.90;;;;;;5029830;28;20432;-78
2023/07/19 05:36:42;;;;;;;2.77;1.70;;;14.20;99.90;;;;;;5029892;28;20361;-77
2023/07/19 05:39:10;;;;;;;2.60;1.90;;;14.20;99.90;;;;;;5010197;28;20874;-78
2023/07/19 05:41:39;;;;;;;3.70;1.80;;;14.20;99.90;;;;;;5011404;28;20258;-80
2023/07/19 05:44:06;;;;;;;2.80;1.83;;;14.20;99.90;;;;;;5026358;28;20771;-80
2023/07/19 05:46:35;;;;;;;2.87;1.60;;;14.20;99.90;;;;;;5027033;28;20634;-83
2023/07/19 05:49:01;;;;;;;1.87;1.73;;;14.20;99.90;;;;;;5030957;28;20829;-80
2023/07/19 05:51:28;;;;;;;3.93;1.67;;;14.20;99.90;;;;;;5023267;28;20229;-80
2023/07/19 05:53:55;;;;;;;3.27;1.90;;;14.20;99.90;;;;;;5029894;28;20235;-80
2023/07/19 05:56:22;;;;;;;3.47;1.70;;;14.20;99.90;;;;;;5028589;28;20231;-81
2023/07/19 05:58:51;;;;;;;3.87;1.90;;;14.20;99.90;;;;;;5027331;28;20234;-81
2023/07/19 06:01:17;;;;;;;3.03;1.90;;;14.30;99.90;;;;;;4994441;28;20228;-85
2023/07/19 06:03:44;;;;;;;5.90;2.00;;;14.30;99.90;;;;;;5017265;28;20591;-80
2023/07/19 06:06:12;;;;;;;4.53;1.77;;;14.30;99.90;;;;;;5026573;28;20245;-80
2023/07/19 06:08:40;;;;;;;4.60;2.40;;;14.30;99.90;;;;;;5032647;28;20725;-80
2023/07/19 06:11:07;;;;;;;3.47;2.10;;;14.40;99.90;;;;;;5018927;28;20239;-84
2023/07/19 06:13:33;;;;;;;3.43;2.27;;;14.40;99.90;;;;;;5033515;28;20755;-81
2023/07/19 06:16:01;;;;;;;4.03;1.97;;;14.40;99.90;;;;;;5015950;28;20598;-80
2023/07/19 06:18:29;;;;;;;4.50;2.13;;;14.40;99.90;;;;;;5028289;28;20228;-82
2023/07/19 06:20:55;;;;;;;2.57;2.07;;;14.50;99.90;;;;;;5048363;28;20230;-80
2023/07/19 06:23:22;;;;;;;3.13;2.10;;;14.50;99.90;;;;;;5031674;28;20252;-83
2023/07/19 06:25:50;;;;;;;2.70;1.70;;;14.50;99.90;;;;;;5031429;28;20322;-86
2023/07/19 06:28:17;;;;;;;3.10;1.90;;;14.60;99.90;;;;;;5019455;28;20287;-82
2023/07/19 06:30:44;;;;;;;3.33;2.10;;;14.60;99.90;;;;;;5030131;28;20234;-80
2023/07/19 06:33:12;;;;;;;3.07;2.30;;;14.60;99.90;;;;;;5032553;28;20243;-83
2023/07/19 06:35:38;;;;;;;3.73;2.03;;;14.70;99.90;;;;;;5032795;28;20266;-80
2023/07/19 06:38:05;;;;;;;3.07;1.80;;;14.70;99.90;;;;;;5055089;28;20306;-82
2023/07/19 06:40:32;;;;;;;2.23;1.70;;;14.70;99.90;;;;;;5032756;28;20236;-80
2023/07/19 06:42:59;;;;;;;5.03;1.77;;;14.70;99.90;;;;;;5021219;28;20728;-81
2023/07/19 06:45:25;;;;;;;2.70;1.80;;;14.80;99.90;;;;;;5021694;28;20231;-82
2023/07/19 06:47:52;;;;;;;4.03;1.57;;;14.80;99.90;;;;;;5029412;28;20266;-82
2023/07/19 06:50:20;;;;;;;4.40;1.83;;;14.80;99.90;;;;;;5036090;28;20239;-80
2023/07/19 06:52:47;;;;;;;2.57;1.47;;;14.90;99.90;;;;;;5032517;28;20231;-85
2023/07/19 06:55:14;;;;;;;4.70;1.90;;;14.90;99.90;;;;;;5028426;28;20297;-81
2023/07/19 06:57:40;;;;;;;1.87;1.53;;;14.90;99.90;;;;;;5026399;28;20223;-80
2023/07/19 07:00:08;;;;;;;3.93;1.70;;;14.90;99.90;;;;;;5026316;28;20315;-80
2023/07/19 07:02:35;;;;;;;3.60;1.70;;;15.00;99.90;;;;;;5028326;28;20236;-80
2023/07/19 07:05:02;;;;;;;3.20;1.57;;;15.00;99.90;;;;;;5032773;28;20755;-80
2023/07/19 07:07:30;;;;;;;2.37;1.40;;;15.00;99.90;;;;;;5014176;28;20220;-82
2023/07/19 07:09:58;;;;;;;4.33;2.13;;;15.10;99.90;;;;;;5025887;28;20247;-83
2023/07/19 07:12:24;;;;;;;2.30;1.50;;;15.10;99.90;;;;;;5037058;28;20235;-80
2023/07/19 07:14:51;;;;;;;1.40;1.30;;;15.00;99.90;;;;;;5032761;28;20647;-81
2023/07/19 07:17:18;;;;;;;3.90;1.70;;;15.10;99.90;;;;;;5027597;28;20262;-79
2023/07/19 07:19:45;;;;;;;3.07;1.57;;;15.10;99.90;;;;;;5047199;28;20230;-78
2023/07/19 07:22:11;;;;;;;1.30;1.20;;;15.10;99.90;;;;;;5027257;28;20231;-79
2023/07/19 07:24:40;;;;;;;2.33;1.40;;;15.10;99.90;;;;;;5016646;28;20706;-79
2023/07/19 07:27:08;;;;;;;2.07;1.47;;;15.20;99.90;;;;;;5015079;28;20315;-78
2023/07/19 07:29:36;;;;;;;1.47;1.23;;;15.20;99.90;;;;;;5026259;28;20220;-79
2023/07/19 07:32:03;;;;;;;2.47;1.20;;;15.30;99.90;;;;;;5019239;28;20236;-79
2023/07/19 07:34:29;;;;;;;2.63;1.43;;;15.40;99.90;;;;;;5033114;28;20314;-79
2023/07/19 07:36:56;;;;;;;2.70;1.60;;;15.60;99.90;;;;;;5021473;28;20989;-79
2023/07/19 07:39:23;;;;;;;1.20;0.90;;;15.70;99.90;;;;;;5026672;28;20599;-79
2023/07/19 07:41:51;;;;;;;1.67;1.30;;;15.90;99.90;;;;;;5018063;28;20237;-78
2023/07/19 07:44:17;;;;;;;2.47;1.47;;;16.10;99.90;;;;;;5017863;28;20228;-79
2023/07/19 07:46:44;;;;;;;3.47;1.27;;;16.20;99.90;;;;;;5017900;28;20230;-79
2023/07/19 07:49:11;;;;;;;1.63;1.10;;;16.40;99.90;;;;;;5025192;28;20228;-78
2023/07/19 07:51:38;;;;;;;2.20;1.20;;;16.50;99.90;;;;;;5017385;28;20228;-78
2023/07/19 07:54:04;;;;;;;3.00;1.20;;;16.60;99.90;;;;;;5025643;28;20323;-79
2023/07/19 07:56:31;;;;;;;3.17;1.25;;;16.60;99.90;;;;;;5017978;28;20228;-78
2023/07/19 07:58:59;;;;;;;3.03;1.23;;;16.60;99.90;;;;;;5027817;28;20722;-79
2023/07/19 08:01:26;;;;;;;2.50;1.23;;;16.60;99.90;;;;;;5014945;28;20224;-78
2023/07/19 08:03:53;;;;;;;3.30;1.10;;;16.60;99.90;;;;;;5016078;28;20223;-78
2023/07/19 08:06:19;;;;;;;1.70;1.10;;;16.50;99.90;;;;;;5025196;28;20315;-78
2023/07/19 08:08:46;;;;;;;2.10;1.17;;;16.50;99.90;;;;;;5028428;28;20249;-78
2023/07/19 08:11:13;;;;;;;1.70;1.30;;;16.50;99.90;;;;;;5046640;28;20228;-79
2023/07/19 08:13:39;;;;;;;1.75;1.38;;;16.50;99.90;;;;;;5030279;28;20736;-79
2023/07/19 08:16:07;;;;;;;2.55;1.20;;;16.50;99.90;;;;;;5027502;28;20228;-79
2023/07/19 08:18:34;;;;;;;2.17;1.00;;;16.50;99.90;;;;;;5015476;28;20214;-79
2023/07/19 08:21:02;;;;;;;2.50;1.20;;;16.50;99.90;;;;;;5053042;28;20232;-78
2023/07/19 08:23:29;;;;;;;3.13;1.30;;;16.70;99.90;;;;;;5027342;28;20249;-78
2023/07/19 08:25:57;;;;;;;1.98;0.95;;;16.80;99.90;;;;;;5025883;28;20237;-78
2023/07/19 08:28:25;;;;;;;1.10;0.90;;;17.10;99.90;;;;;;5015501;28;20319;-78
2023/07/19 08:30:51;;;;;;;1.88;1.10;;;17.30;99.90;;;;;;5027912;28;20231;-78
2023/07/19 08:33:21;;;;;;;1.75;0.88;;;17.50;99.90;;;;;;5027943;28;20898;-78
2023/07/19 08:35:49;;;;;;;2.90;1.10;;;17.80;99.90;;;;;;5023393;28;20240;-78
2023/07/19 08:38:16;;;;;;;1.23;1.02;;;17.90;99.90;;;;;;5027401;28;20240;-78
2023/07/19 08:40:50;;;;;;;1.65;1.17;;;18.10;99.90;;;;;;5029589;28;20228;-78
2023/07/19 08:43:17;;;;;;;1.80;1.10;;;18.30;99.90;;;;;;5025275;28;22491;-78
2023/07/19 08:45:44;;;;;;;2.50;0.90;;;18.40;99.90;;;;;;5038473;28;20244;-78
2023/07/19 08:48:11;;;;;;;2.50;1.00;;;18.50;99.90;;;;;;5024673;28;20236;-78
2023/07/19 08:50:42;;;;;;;0.93;0.80;;;18.60;99.90;;;;;;5027583;28;20316;-78
2023/07/19 08:53:08;;;;;;;1.55;0.80;;;18.70;99.90;;;;;;5028692;28;20753;-78
2023/07/19 08:55:35;;;;;;;1.80;1.20;;;18.90;99.90;;;;;;5025684;28;20551;-78
2023/07/19 08:58:02;;;;;;;2.70;1.30;;;19.20;99.90;;;;;;5025762;28;20259;-79
2023/07/19 09:00:31;;;;;;;4.10;1.20;;;19.40;99.90;;;;;;5028902;28;20973;-78
2023/07/19 09:02:58;;;;;;;1.70;1.05;;;19.70;99.90;;;;;;5024630;28;20247;-78
2023/07/19 09:05:28;;;;;;;0.80;0.77;;;19.90;99.90;;;;;;5028145;28;20251;-78
2023/07/19 09:08:00;;;;;;;1.85;1.02;;;20.10;99.90;;;;;;5026034;28;20224;-79
2023/07/19 09:10:27;;;;;;;1.10;0.68;;;20.20;99.90;;;;;;5023468;28;20223;-78
2023/07/19 09:12:53;;;;;;;1.35;0.90;;;20.30;99.90;;;;;;5030881;28;20241;-79
2023/07/19 09:15:20;;;;;;;2.20;1.00;;;20.40;99.90;;;;;;5023230;28;20221;-78
2023/07/19 09:17:49;;;;;;;4.45;1.30;;;20.40;99.90;;;;;;5049268;28;20283;-78
2023/07/19 09:20:17;;;;;;;1.02;0.80;;;20.30;99.90;;;;;;5026809;28;20235;-79
2023/07/19 09:22:44;;;;;;;2.03;0.88;;;20.30;99.90;;;;;;5025401;28;20695;-78
2023/07/19 09:25:13;;;;;;;1.25;0.77;;;20.30;99.90;;;;;;5030225;28;20236;-78
2023/07/19 09:27:42;;;;;;;1.10;0.65;;;20.30;99.90;;;;;;5026277;28;20541;-78
2023/07/19 09:30:11;;;;;;;3.20;0.90;;;20.40;99.90;;;;;;5016723;28;20916;-78
2023/07/19 09:32:38;;;;;;;2.50;0.80;;;20.60;99.90;;;;;;5031796;28;20866;-78
2023/07/19 09:35:06;;;;;;;2.35;0.73;;;20.90;99.90;;;;;;5010871;28;20271;-78
2023/07/19 09:37:33;;;;;;;2.47;0.70;;;21.10;99.90;;;;;;5026231;28;21845;-79
2023/07/19 09:40:02;;;;;;;2.20;0.80;;;21.30;99.90;;;;;;5030178;28;20643;-79
2023/07/19 09:42:32;;;;;;;1.80;0.90;;;21.40;99.90;;;;;;5025688;28;20229;-78
2023/07/19 09:45:00;;;;;;;3.00;0.60;;;21.60;99.80;;;;;;5021398;28;20225;-79
2023/07/19 09:47:27;;;;;;;2.45;0.80;;;21.80;99.90;;;;;;5030230;28;20247;-79
2023/07/19 09:49:54;;;;;;;1.63;1.02;;;22.20;99.90;;;;;;5026289;28;20278;-79
2023/07/19 09:52:25;;;;;;;1.52;0.85;;;22.40;99.40;;;;;;5041851;28;20225;-79
2023/07/19 09:54:53;;;;;;;1.30;0.85;;;22.80;99.30;;;;;;5030262;28;20228;-78
2023/07/19 09:57:22;;;;;;;0.98;0.80;;;23.10;98.60;;;;;;5024506;28;20778;-79
2023/07/19 09:59:53;;;;;;;2.53;1.00;;;23.40;98.00;;;;;;5025984;28;20231;-79
2023/07/19 10:02:22;;;;;;;0.77;0.60;;;23.60;97.60;;;;;;5024275;28;20224;-78
2023/07/19 10:04:50;;;;;;;1.60;1.00;;;24.00;97.80;;;;;;5049240;28;20593;-79
2023/07/19 10:07:21;;;;;;;0.95;0.60;;;24.40;97.90;;;;;;5028083;28;20220;-78
2023/07/19 10:09:49;;;;;;;1.08;0.73;;;24.90;96.30;;;;;;5014808;28;20238;-79
2023/07/19 10:12:24;;;;;;;2.47;1.10;;;25.20;95.60;;;;;;5035158;28;20221;-79
2023/07/19 10:15:01;;;;;;;1.27;0.73;;;25.30;94.30;;;;;;5026965;28;20232;-79
2023/07/19 10:17:29;;;;;;;1.10;0.80;;;25.40;94.10;;;;;;5017292;28;20235;-79
2023/07/19 10:20:07;;;;;;;1.80;0.90;;;25.50;94.20;;;;;;5031706;28;20274;-79
2023/07/19 10:22:55;;;;;;;1.42;0.95;;;25.50;93.80;;;;;;5018372;28;20559;-79
2023/07/19 10:25:24;;;;;;;1.70;0.90;;;25.60;93.00;;;;;;5014989;28;20625;-79
2023/07/19 10:28:01;;;;;;;1.95;0.80;;;25.70;93.10;;;;;;5026523;28;20243;-79
2023/07/19 10:30:57;;;;;;;1.13;0.82;;;25.80;91.80;;;;;;5025748;28;20228;-79
2023/07/19 10:33:25;;;;;;;0.82;0.60;;;26.00;91.00;;;;;;5007934;28;20810;-78
2023/07/19 10:35:54;;;;;;;1.13;0.88;;;26.10;92.40;;;;;;5025848;28;20225;-78
2023/07/19 10:38:23;;;;;;;2.47;0.90;;;26.30;92.20;;;;;;5028940;28;20224;-79
2023/07/19 10:40:55;;;;;;;1.42;0.77;;;26.70;92.20;;;;;;5030062;28;20271;-79
2023/07/19 10:43:22;;;;;;;1.60;0.90;;;27.00;91.90;;;;;;5048296;28;20275;-79
2023/07/19 10:45:49;;;;;;;1.33;0.70;;;27.30;91.40;;;;;;5030441;28;20231;-79
2023/07/19 10:48:17;;;;;;;1.33;0.90;;;27.60;91.20;;;;;;5026832;28;20339;-79
2023/07/19 10:50:45;;;;;;;1.40;0.90;;;27.80;89.10;;;;;;5026779;28;20220;-79
2023/07/19 10:53:12;;;;;;;1.92;1.05;;;27.80;88.00;;;;;;5026802;28;20233;-79
2023/07/19 10:55:38;;;;;;;2.13;1.08;;;27.70;87.20;;;;;;5029934;28;20243;-79
2023/07/19 10:58:05;;;;;;;1.92;0.93;;;27.60;86.10;;;;;;5029773;28;20232;-78
2023/07/19 11:00:33;;;;;;;2.40;0.93;;;27.30;87.30;;;;;;5029330;28;20251;-79
2023/07/19 11:03:00;;;;;;;1.42;0.95;;;27.10;87.00;;;;;;5027654;28;20699;-79
2023/07/19 11:05:28;;;;;;;2.42;1.13;;;26.80;86.90;;;;;;5028042;28;20222;-79
2023/07/19 11:07:54;;;;;;;1.33;0.90;;;26.50;86.40;;;;;;5028672;28;20224;-79
2023/07/19 11:10:22;;;;;;;2.63;1.05;;;26.30;88.40;;;;;;5029870;28;20224;-79
2023/07/19 11:12:49;;;;;;;1.88;0.88;;;26.00;88.20;;;;;;5031744;28;20233;-79
2023/07/19 11:15:16;;;;;;;1.73;0.75;;;25.90;88.90;;;;;;5029826;28;20228;-79
2023/07/19 11:17:43;;;;;;;2.17;1.10;;;25.70;89.80;;;;;;5027631;28;20319;-79
2023/07/19 11:20:12;;;;;;;1.42;1.00;;;25.60;88.50;;;;;;5017009;28;20331;-79
2023/07/19 11:22:40;;;;;;;2.22;0.82;;;25.40;86.70;;;;;;5025499;28;20227;-79
2023/07/19 11:25:11;;;;;;;2.25;1.10;;;25.20;88.20;;;;;;5030382;28;20252;-79
2023/07/19 11:27:39;;;;;;;2.65;1.10;;;25.00;87.00;;;;;;5024772;28;20232;-79
2023/07/19 11:30:07;;;;;;;2.25;1.40;;;24.80;88.90;;;;;;5027414;28;20648;-78
2023/07/19 11:32:34;;;;;;;1.80;1.10;;;24.60;89.70;;;;;;5029726;28;20224;-79
2023/07/19 11:35:02;;;;;;;2.03;1.20;;;24.50;90.70;;;;;;5031608;28;21017;-78
2023/07/19 11:37:30;;;;;;;1.90;1.33;;;24.50;91.10;;;;;;5026436;28;20262;-79
2023/07/19 11:40:01;;;;;;;1.70;1.10;;;24.60;91.00;;;;;;5023159;28;20240;-78
2023/07/19 11:42:43;;;;;;;1.20;1.10;;;24.70;91.20;;;;;;5028458;28;20697;-79
2023/07/19 11:45:11;;;;;;;1.35;1.10;;;24.70;89.30;;;;;;5031272;28;20244;-79
2023/07/19 11:47:38;;;;;;;2.00;1.60;;;24.70;90.00;;;;;;5027202;28;20236;-78
2023/07/19 11:50:06;;;;;;;1.52;1.15;;;24.60;88.90;;;;;;5031306;28;20229;-79
2023/07/19 11:52:46;;;;;;;4.13;1.60;;;24.40;89.90;;;;;;5027455;28;20730;-79
2023/07/19 11:55:15;;;;;;;3.95;1.40;;;24.30;89.80;;;;;;5048889;28;20248;-79
2023/07/19 11:57:44;;;;;;;2.85;1.48;;;24.10;90.00;;;;;;5030450;28;20278;-79
2023/07/19 12:00:14;;;;;;;3.33;1.63;;;23.90;90.10;;;;;;5028267;28;20248;-78
2023/07/19 12:02:43;;;;;;;2.72;1.90;;;23.80;90.50;;;;;;5023570;28;20304;-78
2023/07/19 12:05:11;;;;;;;3.38;1.70;;;23.70;91.10;;;;;;5027943;28;20255;-78
2023/07/19 12:07:38;;;;;;;2.97;1.98;;;23.60;91.20;;;;;;5015189;28;20224;-79
2023/07/19 12:10:06;;;;;;;3.88;1.45;;;23.60;91.70;;;;;;5025240;28;20746;-78
2023/07/19 12:12:35;;;;;;;1.98;1.15;;;23.70;92.40;;;;;;5030029;28;20230;-79
2023/07/19 12:15:05;;;;;;;1.95;1.75;;;23.80;91.90;;;;;;5026656;28;20235;-79
2023/07/19 12:17:31;;;;;;;2.25;1.30;;;24.00;92.00;;;;;;5022741;28;20239;-79
2023/07/19 12:19:59;;;;;;;2.03;1.13;;;24.20;91.80;;;;;;5024245;28;20287;-78
2023/07/19 12:22:27;;;;;;;2.40;1.50;;;24.40;91.60;;;;;;5029018;28;20233;-78
2023/07/19 12:24:54;;;;;;;1.45;1.10;;;24.50;91.00;;;;;;5027864;28;20931;-79
2023/07/19 12:27:20;;;;;;;2.55;1.38;;;24.70;91.20;;;;;;5033362;28;20237;-78
2023/07/19 12:29:48;;;;;;;4.90;1.58;;;24.70;90.80;;;;;;5027532;28;20220;-79
2023/07/19 12:32:16;;;;;;;3.20;1.70;;;24.70;90.50;;;;;;5026926;28;20233;-78
2023/07/19 12:34:44;;;;;;;3.00;1.58;;;24.70;90.50;;;;;;5028061;28;20223;-79
2023/07/19 12:37:11;;;;;;;2.33;1.35;;;24.60;91.00;;;;;;5025520;28;20307;-79
2023/07/19 12:39:37;;;;;;;2.85;1.23;;;24.60;90.90;;;;;;5029711;28;20227;-78
2023/07/19 12:42:05;;;;;;;2.88;1.60;;;24.50;90.60;;;;;;5022043;28;20232;-79
2023/07/19 12:44:32;;;;;;;3.65;1.70;;;24.40;90.80;;;;;;5028355;28;20225;-79
2023/07/19 12:47:00;;;;;;;1.75;1.55;;;24.40;90.60;;;;;;5026520;28;20221;-79
2023/07/19 12:49:27;;;;;;;3.80;1.85;;;24.20;90.90;;;;;;5013893;28;20220;-79
2023/07/19 12:51:54;;;;;;;3.72;1.75;;;24.10;90.50;;;;;;5026001;28;20253;-78